createdAt,value
2024-03-17T00:00:33.000Z,90.31
2024-03-17T00:01:32.962Z,91.03
2024-03-17T00:02:32.956Z,91.55
2024-03-17T00:03:32.988Z,91.45
2024-03-17T00:04:32.947Z,91.14
2024-03-17T00:05:32.945Z,91.14
2024-03-17T00:06:32.929Z,90.41
2024-03-17T00:07:32.925Z,90.66
2024-03-17T00:08:32.931Z,91.49
2024-03-17T00:09:32.896Z,92.43
2024-03-17T00:10:32.887Z,92.47
2024-03-17T00:11:32.884Z,92.05
2024-03-17T00:12:32.882Z,91.99
2024-03-17T00:13:32.877Z,92.61
2024-03-17T00:14:32.834Z,93.49
2024-03-17T00:15:32.840Z,94.63
2024-03-17T00:16:32.836Z,95.67
2024-03-17T00:17:32.827Z,96.39
2024-03-17T00:18:32.794Z,97.02
2024-03-17T00:19:32.779Z,96.97
2024-03-17T00:20:32.771Z,96.76
2024-03-17T00:21:32.789Z,96.45
2024-03-17T00:22:32.769Z,95.99
2024-03-17T00:23:32.799Z,95.47
2024-03-17T00:24:32.763Z,95.06
2024-03-17T00:25:32.756Z,94.85
2024-03-17T00:26:32.722Z,94.74
2024-03-17T00:27:32.721Z,94.43
2024-03-17T00:28:32.711Z,94.37
2024-03-17T00:29:32.689Z,94.68
2024-03-17T00:30:35.129Z,94.68
2024-03-17T00:31:32.657Z,94.84
2024-03-17T00:32:32.654Z,95.15
2024-03-17T00:33:32.652Z,95.46
2024-03-17T00:34:32.634Z,95.98
2024-03-17T00:35:32.663Z,96.08
2024-03-17T00:36:32.617Z,95.98
2024-03-17T00:37:32.597Z,95.77
2024-03-17T00:38:32.590Z,95.98
2024-03-17T00:39:32.601Z,95.98
2024-03-17T00:40:32.621Z,95.36
2024-03-17T00:41:32.550Z,94.67
2024-03-17T00:42:32.569Z,94.05
2024-03-17T00:43:32.544Z,92.53
2024-03-17T00:44:32.534Z,94.03
2024-03-17T00:45:32.538Z,96.21
2024-03-17T00:46:32.574Z,98.08
2024-03-17T00:47:32.501Z,98.86
2024-03-17T00:48:32.507Z,99.07
2024-03-17T00:49:32.468Z,98.72
2024-03-17T00:50:32.538Z,98.20
2024-03-17T00:51:32.494Z,97.89
2024-03-17T00:52:32.525Z,97.47
2024-03-17T00:53:32.505Z,97.37
2024-03-17T00:54:32.436Z,97.16
2024-03-17T00:55:32.402Z,96.95
2024-03-17T00:56:32.425Z,96.95
2024-03-17T00:57:32.403Z,97.06
2024-03-17T00:58:32.379Z,97.27
2024-03-17T00:59:32.395Z,97.47
2024-03-17T01:00:32.388Z,97.78
2024-03-17T01:01:32.340Z,97.89
2024-03-17T01:02:32.364Z,97.27
2024-03-17T01:03:32.339Z,97.31
2024-03-17T01:04:32.315Z,97.31
2024-03-17T01:05:32.328Z,97.10
2024-03-17T01:06:32.304Z,97.31
2024-03-17T01:07:32.294Z,97.62
2024-03-17T01:08:32.305Z,97.72
2024-03-17T01:09:32.267Z,98.03
2024-03-17T01:10:32.255Z,98.03
2024-03-17T01:11:32.255Z,98.14
2024-03-17T01:12:32.254Z,98.14
2024-03-17T01:13:32.276Z,98.35
2024-03-17T01:14:32.216Z,98.35
2024-03-17T01:15:32.217Z,98.45
2024-03-17T01:16:32.188Z,97.98
2024-03-17T01:17:32.176Z,97.88
2024-03-17T01:18:32.169Z,98.08
2024-03-17T01:19:32.216Z,98.55
2024-03-17T01:20:32.173Z,98.97
2024-03-17T01:21:32.173Z,98.86
2024-03-17T01:22:32.145Z,98.86
2024-03-17T01:23:32.127Z,98.55
2024-03-17T01:24:32.137Z,98.03
2024-03-17T01:25:32.138Z,97.88
2024-03-17T01:26:32.140Z,97.88
2024-03-17T01:27:32.075Z,98.50
2024-03-17T01:28:32.138Z,99.02
2024-03-17T01:29:32.057Z,98.75
2024-03-17T01:30:32.037Z,99.48
2024-03-17T01:31:32.045Z,99.99
2024-03-17T01:32:32.097Z,99.99
2024-03-17T01:33:32.042Z,99.99
2024-03-17T01:34:32.021Z,99.99
2024-03-17T01:35:32.045Z,99.99
2024-03-17T01:36:31.969Z,99.99
2024-03-17T01:37:31.966Z,99.99
2024-03-17T01:38:31.999Z,99.99
2024-03-17T01:39:31.947Z,99.99
2024-03-17T01:40:31.937Z,99.99
2024-03-17T01:41:31.935Z,99.99
2024-03-17T01:42:31.923Z,99.99
2024-03-17T01:43:31.892Z,99.99
2024-03-17T01:44:38.479Z,99.99
2024-03-17T01:45:31.914Z,99.95
2024-03-17T01:46:31.876Z,99.99
2024-03-17T01:47:31.886Z,99.99
2024-03-17T01:48:31.851Z,99.99
2024-03-17T01:49:31.885Z,99.99
2024-03-17T01:50:31.869Z,99.99
2024-03-17T01:51:31.827Z,99.99
2024-03-17T01:52:31.807Z,99.99
2024-03-17T01:53:31.811Z,99.99
2024-03-17T01:54:31.782Z,99.99
2024-03-17T01:55:31.802Z,99.99
2024-03-17T01:56:31.756Z,99.99
2024-03-17T01:57:31.743Z,99.99
2024-03-17T01:58:31.759Z,99.99
2024-03-17T01:59:31.743Z,99.99
2024-03-17T02:00:31.704Z,99.99
2024-03-17T02:01:31.724Z,99.99
2024-03-17T02:02:31.681Z,99.99
2024-03-17T02:03:31.683Z,99.99
2024-03-17T02:04:31.696Z,99.99
2024-03-17T02:05:31.646Z,99.99
2024-03-17T02:06:31.720Z,99.99
2024-03-17T02:07:31.629Z,99.99
2024-03-17T02:08:31.669Z,99.99
2024-03-17T02:09:31.629Z,99.99
2024-03-17T02:10:31.595Z,99.99
2024-03-17T02:11:31.638Z,99.99
2024-03-17T02:12:31.608Z,99.99
2024-03-17T02:13:31.564Z,99.99
2024-03-17T02:14:31.553Z,99.99
2024-03-17T02:15:31.562Z,99.99
2024-03-17T02:16:31.569Z,99.95
2024-03-17T02:17:31.525Z,99.74
2024-03-17T02:18:31.533Z,99.64
2024-03-17T02:19:31.534Z,99.54
2024-03-17T02:20:31.525Z,99.54
2024-03-17T02:21:31.513Z,99.74
2024-03-17T02:22:31.464Z,99.95
2024-03-17T02:23:38.148Z,99.99
2024-03-17T02:24:31.486Z,99.99
2024-03-17T02:25:31.431Z,99.99
2024-03-17T02:26:31.431Z,99.99
2024-03-17T02:27:31.501Z,99.99
2024-03-17T02:28:31.400Z,99.99
2024-03-17T02:29:31.404Z,99.99
2024-03-17T02:30:31.383Z,99.99
2024-03-17T02:31:31.394Z,99.99
2024-03-17T02:32:31.383Z,99.99
2024-03-17T02:33:31.353Z,99.99
2024-03-17T02:34:31.360Z,99.99
2024-03-17T02:35:31.375Z,99.99
2024-03-17T02:36:31.321Z,99.99
2024-03-17T02:37:31.321Z,99.99
2024-03-17T02:38:31.288Z,99.99
2024-03-17T02:39:31.294Z,99.99
2024-03-17T02:40:31.270Z,99.99
2024-03-17T02:41:31.252Z,99.99
2024-03-17T02:42:31.300Z,99.99
2024-03-17T02:43:31.256Z,99.99
2024-03-17T02:44:31.222Z,99.99
2024-03-17T02:45:31.226Z,99.99
2024-03-17T02:46:31.195Z,99.99
2024-03-17T02:47:31.190Z,99.99
2024-03-17T02:48:31.202Z,99.99
2024-03-17T02:49:31.172Z,99.99
2024-03-17T02:50:31.164Z,99.99
2024-03-17T02:51:31.152Z,99.99
2024-03-17T02:52:31.140Z,99.99
2024-03-17T02:53:31.123Z,99.99
2024-03-17T02:54:36.177Z,99.99
2024-03-17T02:55:31.142Z,99.99
2024-03-17T02:56:31.135Z,99.99
2024-03-17T02:57:31.080Z,99.99
2024-03-17T02:58:31.077Z,99.74
2024-03-17T02:59:31.109Z,99.74
2024-03-17T03:00:31.077Z,99.64
2024-03-17T03:01:31.055Z,99.43
2024-03-17T03:02:31.028Z,99.43
2024-03-17T03:03:31.008Z,99.43
2024-03-17T03:04:30.999Z,99.54
2024-03-17T03:05:31.005Z,99.43
2024-03-17T03:06:31.083Z,99.64
2024-03-17T03:07:30.979Z,99.64
2024-03-17T03:08:30.965Z,99.68
2024-03-17T03:09:30.964Z,99.74
2024-03-17T03:10:30.973Z,99.33
2024-03-17T03:11:30.924Z,98.02
2024-03-17T03:12:30.934Z,97.09
2024-03-17T03:13:30.905Z,96.51
2024-03-17T03:14:30.935Z,96.45
2024-03-17T03:15:30.889Z,97.59
2024-03-17T03:16:30.878Z,98.99
2024-03-17T03:17:30.851Z,99.82
2024-03-17T03:18:30.870Z,99.99
2024-03-17T03:19:30.863Z,99.35
2024-03-17T03:20:30.822Z,99.08
2024-03-17T03:21:30.865Z,99.81
2024-03-17T03:22:30.817Z,99.99
2024-03-17T03:23:30.804Z,99.99
2024-03-17T03:24:30.771Z,99.99
2024-03-17T03:25:30.801Z,99.99
2024-03-17T03:26:30.750Z,99.99
2024-03-17T03:27:30.773Z,99.99
2024-03-17T03:28:30.764Z,99.99
2024-03-17T03:29:30.727Z,99.99
2024-03-17T03:30:30.701Z,99.99
2024-03-17T03:31:30.724Z,99.99
2024-03-17T03:32:30.706Z,99.99
2024-03-17T03:33:30.680Z,99.99
2024-03-17T03:34:30.683Z,99.99
2024-03-17T03:35:30.681Z,99.99
2024-03-17T03:36:30.677Z,99.99
2024-03-17T03:37:30.629Z,99.99
2024-03-17T03:38:30.639Z,99.99
2024-03-17T03:39:30.680Z,99.99
2024-03-17T03:40:30.596Z,99.99
2024-03-17T03:41:30.622Z,99.99
2024-03-17T03:42:30.581Z,99.99
2024-03-17T03:43:30.613Z,99.99
2024-03-17T03:44:30.577Z,99.99
2024-03-17T03:45:30.554Z,99.99
2024-03-17T03:46:30.539Z,99.99
2024-03-17T03:47:30.612Z,99.99
2024-03-17T03:48:30.512Z,99.99
2024-03-17T03:49:30.507Z,99.99
2024-03-17T03:50:30.516Z,99.18
2024-03-17T03:51:30.517Z,99.02
2024-03-17T03:52:30.500Z,99.33
2024-03-17T03:53:30.491Z,99.80
2024-03-17T03:54:30.479Z,99.99
2024-03-17T03:55:30.471Z,99.99
2024-03-17T03:56:30.434Z,99.99
2024-03-17T03:57:30.472Z,99.99
2024-03-17T03:58:30.443Z,99.99
2024-03-17T03:59:30.416Z,99.99
2024-03-17T04:00:30.415Z,99.99
2024-03-17T04:01:30.409Z,99.99
2024-03-17T04:02:30.403Z,99.99
2024-03-17T04:03:30.392Z,99.99
2024-03-17T04:04:30.366Z,99.99
2024-03-17T04:05:30.381Z,99.99
2024-03-17T04:06:30.341Z,99.99
2024-03-17T04:07:30.344Z,99.99
2024-03-17T04:08:30.337Z,99.99
2024-03-17T04:09:30.314Z,99.99
2024-03-17T04:10:30.303Z,99.99
2024-03-17T04:11:30.303Z,99.99
2024-03-17T04:12:30.613Z,99.99
2024-03-17T04:13:30.286Z,99.99
2024-03-17T04:14:30.283Z,99.99
2024-03-17T04:15:30.286Z,99.99
2024-03-17T04:16:30.236Z,99.99
2024-03-17T04:17:30.303Z,99.99
2024-03-17T04:18:30.216Z,99.99
2024-03-17T04:19:30.210Z,99.99
2024-03-17T04:20:30.193Z,99.99
2024-03-17T04:21:30.194Z,99.99
2024-03-17T04:22:30.200Z,99.99
2024-03-17T04:23:30.163Z,99.99
2024-03-17T04:24:30.161Z,99.99
2024-03-17T04:25:30.149Z,99.99
2024-03-17T04:26:30.124Z,99.99
2024-03-17T04:27:30.144Z,99.99
2024-03-17T04:28:30.107Z,99.99
2024-03-17T04:29:30.140Z,99.99
2024-03-17T04:30:30.096Z,99.99
2024-03-17T04:31:30.102Z,99.99
2024-03-17T04:32:30.064Z,99.99
2024-03-17T04:33:30.091Z,99.99
2024-03-17T04:34:30.045Z,99.99
2024-03-17T04:35:30.054Z,99.99
2024-03-17T04:36:30.043Z,99.99
2024-03-17T04:37:30.060Z,99.99
2024-03-17T04:38:30.005Z,99.99
2024-03-17T04:39:30.021Z,99.99
2024-03-17T04:40:29.996Z,99.99
2024-03-17T04:41:29.993Z,99.99
2024-03-17T04:42:29.968Z,99.99
2024-03-17T04:43:29.984Z,99.99
2024-03-17T04:44:29.990Z,99.99
2024-03-17T04:45:29.949Z,99.99
2024-03-17T04:46:29.943Z,99.99
2024-03-17T04:47:29.929Z,99.99
2024-03-17T04:48:29.947Z,99.99
2024-03-17T04:49:29.972Z,99.99
2024-03-17T04:50:29.888Z,99.99
2024-03-17T04:51:29.888Z,99.99
2024-03-17T04:52:29.867Z,99.99
2024-03-17T04:53:29.857Z,99.99
2024-03-17T04:54:31.798Z,99.99
2024-03-17T04:55:29.843Z,99.99
2024-03-17T04:56:29.821Z,99.99
2024-03-17T04:57:29.820Z,99.99
2024-03-17T04:58:29.829Z,99.99
2024-03-17T04:59:29.840Z,99.99
2024-03-17T05:00:29.779Z,99.99
2024-03-17T05:01:29.777Z,99.99
2024-03-17T05:02:29.802Z,99.99
2024-03-17T05:03:29.757Z,99.99
2024-03-17T05:04:29.771Z,99.99
2024-03-17T05:05:29.748Z,99.99
2024-03-17T05:06:29.740Z,99.99
2024-03-17T05:07:29.724Z,99.99
2024-03-17T05:08:29.708Z,99.99
2024-03-17T05:09:29.736Z,99.99
2024-03-17T05:10:29.738Z,99.99
2024-03-17T05:11:29.681Z,99.99
2024-03-17T05:12:29.658Z,99.99
2024-03-17T05:13:29.685Z,99.99
2024-03-17T05:14:29.673Z,99.99
2024-03-17T05:15:29.717Z,99.99
2024-03-17T05:16:29.691Z,99.99
2024-03-17T05:17:29.668Z,99.99
2024-03-17T05:18:29.664Z,99.99
2024-03-17T05:19:29.682Z,99.99
2024-03-17T05:20:29.631Z,99.99
2024-03-17T05:21:29.758Z,99.99
2024-03-17T05:22:29.694Z,99.99
2024-03-17T05:23:29.617Z,99.99
2024-03-17T05:24:29.634Z,99.99
2024-03-17T05:25:29.546Z,99.99
2024-03-17T05:26:29.519Z,99.99
2024-03-17T05:27:29.530Z,99.99
2024-03-17T05:28:29.507Z,99.99
2024-03-17T05:29:29.539Z,99.99
2024-03-17T05:30:29.475Z,99.99
2024-03-17T05:31:29.484Z,99.99
2024-03-17T05:32:29.488Z,99.99
2024-03-17T05:33:29.457Z,99.99
2024-03-17T05:34:29.463Z,99.99
2024-03-17T05:35:29.455Z,99.99
2024-03-17T05:36:29.452Z,99.99
2024-03-17T05:37:29.443Z,99.99
2024-03-17T05:38:29.395Z,99.99
2024-03-17T05:39:29.352Z,99.99
2024-03-17T05:40:29.379Z,99.99
2024-03-17T05:41:29.329Z,99.99
2024-03-17T05:42:29.331Z,99.99
2024-03-17T05:43:29.318Z,99.99
2024-03-17T05:44:29.289Z,99.99
2024-03-17T05:45:29.305Z,99.99
2024-03-17T05:46:29.267Z,99.99
2024-03-17T05:47:29.285Z,99.99
2024-03-17T05:48:29.277Z,99.99
2024-03-17T05:49:29.270Z,99.99
2024-03-17T05:50:29.223Z,99.99
2024-03-17T05:51:29.242Z,99.99
2024-03-17T05:52:29.205Z,99.99
2024-03-17T05:53:29.211Z,99.99
2024-03-17T05:54:29.199Z,99.99
2024-03-17T05:55:29.193Z,99.99
2024-03-17T05:56:29.186Z,99.99
2024-03-17T05:57:29.164Z,99.99
2024-03-17T05:58:29.145Z,99.99
2024-03-17T05:59:29.148Z,99.99
2024-03-17T06:00:29.125Z,99.99
2024-03-17T06:01:29.143Z,99.99
2024-03-17T06:02:29.125Z,99.99
2024-03-17T06:03:29.100Z,99.99
2024-03-17T06:04:29.106Z,99.99
2024-03-17T06:05:29.073Z,99.99
2024-03-17T06:06:29.088Z,99.99
2024-03-17T06:07:29.084Z,99.99
2024-03-17T06:08:29.061Z,99.99
2024-03-17T06:09:29.063Z,99.99
2024-03-17T06:10:29.036Z,99.99
2024-03-17T06:11:29.044Z,99.99
2024-03-17T06:12:29.056Z,99.99
2024-03-17T06:13:29.017Z,99.99
2024-03-17T06:14:29.002Z,99.99
2024-03-17T06:15:28.995Z,99.99
2024-03-17T06:16:28.993Z,99.99
2024-03-17T06:17:28.967Z,99.99
2024-03-17T06:18:28.965Z,99.99
2024-03-17T06:19:28.933Z,99.99
2024-03-17T06:20:28.927Z,99.99
2024-03-17T06:21:28.939Z,99.99
2024-03-17T06:22:28.935Z,99.99
2024-03-17T06:23:28.904Z,99.99
2024-03-17T06:24:28.881Z,99.99
2024-03-17T06:25:28.889Z,99.99
2024-03-17T06:26:28.912Z,99.99
2024-03-17T06:27:28.892Z,99.99
2024-03-17T06:28:28.856Z,99.99
2024-03-17T06:29:28.829Z,99.99
2024-03-17T06:30:32.365Z,99.99
2024-03-17T06:31:28.857Z,99.99
2024-03-17T06:32:28.843Z,99.99
2024-03-17T06:33:28.831Z,99.99
2024-03-17T06:34:28.778Z,99.99
2024-03-17T06:35:28.775Z,99.99
2024-03-17T06:36:28.780Z,99.99
2024-03-17T06:37:28.754Z,99.99
2024-03-17T06:38:28.770Z,99.99
2024-03-17T06:39:28.759Z,99.99
2024-03-17T06:40:28.728Z,99.99
2024-03-17T06:41:28.724Z,99.99
2024-03-17T06:42:28.692Z,99.99
2024-03-17T06:43:28.732Z,99.99
2024-03-17T06:44:28.713Z,99.99
2024-03-17T06:45:28.684Z,99.99
2024-03-17T06:46:28.659Z,99.99
2024-03-17T06:47:30.273Z,99.99
2024-03-17T06:48:28.669Z,99.99
2024-03-17T06:49:28.660Z,99.99
2024-03-17T06:50:28.638Z,99.99
2024-03-17T06:51:28.640Z,99.99
2024-03-17T06:52:28.640Z,99.99
2024-03-17T06:53:28.587Z,99.99
2024-03-17T06:54:28.568Z,99.99
2024-03-17T06:55:28.583Z,99.99
2024-03-17T06:56:28.606Z,99.99
2024-03-17T06:57:28.537Z,99.99
2024-03-17T06:58:28.591Z,99.99
2024-03-17T06:59:28.543Z,99.99
2024-03-17T07:00:28.512Z,99.99
2024-03-17T07:01:28.507Z,99.99
2024-03-17T07:02:28.522Z,99.99
2024-03-17T07:03:28.478Z,99.99
2024-03-17T07:04:28.508Z,99.99
2024-03-17T07:05:28.464Z,99.99
2024-03-17T07:06:28.466Z,99.99
2024-03-17T07:07:28.448Z,99.99
2024-03-17T07:08:28.438Z,99.99
2024-03-17T07:09:28.418Z,99.99
2024-03-17T07:10:28.415Z,99.99
2024-03-17T07:11:28.427Z,99.99
2024-03-17T07:12:28.379Z,99.99
2024-03-17T07:13:28.381Z,99.99
2024-03-17T07:14:28.401Z,99.99
2024-03-17T07:15:28.351Z,99.99
2024-03-17T07:16:28.367Z,99.99
2024-03-17T07:17:28.648Z,99.99
2024-03-17T07:18:28.394Z,99.99
2024-03-17T07:19:28.336Z,99.99
2024-03-17T07:20:28.335Z,99.99
2024-03-17T07:21:28.273Z,99.99
2024-03-17T07:22:28.277Z,99.99
2024-03-17T07:23:28.283Z,99.99
2024-03-17T07:24:28.268Z,99.99
2024-03-17T07:25:28.258Z,99.99
2024-03-17T07:26:28.239Z,99.99
2024-03-17T07:27:28.218Z,99.99
2024-03-17T07:28:28.205Z,99.99
2024-03-17T07:29:28.212Z,99.99
2024-03-17T07:30:28.190Z,99.99
2024-03-17T07:31:28.190Z,99.99
2024-03-17T07:32:28.181Z,99.99
2024-03-17T07:33:28.179Z,99.99
2024-03-17T07:34:28.163Z,99.99
2024-03-17T07:35:28.116Z,99.99
2024-03-17T07:36:28.109Z,99.99
2024-03-17T07:37:28.125Z,99.99
2024-03-17T07:38:28.102Z,99.99
2024-03-17T07:39:28.113Z,99.99
2024-03-17T07:40:28.077Z,99.72
2024-03-17T07:41:28.081Z,99.72
2024-03-17T07:42:28.056Z,99.99
2024-03-17T07:43:28.085Z,99.99
2024-03-17T07:44:28.060Z,99.68
2024-03-17T07:45:28.030Z,99.57
2024-03-17T07:46:28.013Z,99.37
2024-03-17T07:47:28.043Z,98.80
2024-03-17T07:48:27.989Z,98.60
2024-03-17T07:49:27.984Z,98.60
2024-03-17T07:50:27.979Z,98.18
2024-03-17T07:51:27.974Z,95.39
2024-03-17T07:52:27.941Z,95.34
2024-03-17T07:53:27.938Z,96.27
2024-03-17T07:54:27.926Z,97.78
2024-03-17T07:55:27.901Z,97.36
2024-03-17T07:56:27.920Z,96.44
2024-03-17T07:57:27.871Z,95.40
2024-03-17T07:58:27.869Z,93.08
2024-03-17T07:59:27.853Z,90.50
2024-03-17T08:00:27.863Z,90.25
2024-03-17T08:01:29.122Z,87.10
2024-03-17T08:02:27.835Z,85.93
2024-03-17T08:03:27.828Z,85.31
2024-03-17T08:04:27.842Z,85.83
2024-03-17T08:05:27.816Z,86.24
2024-03-17T08:06:27.793Z,85.83
2024-03-17T08:07:27.799Z,85.52
2024-03-17T08:08:27.763Z,85.31
2024-03-17T08:09:27.780Z,85.10
2024-03-17T08:10:27.746Z,85.72
2024-03-17T08:11:27.754Z,84.28
2024-03-17T08:12:27.842Z,84.79
2024-03-17T08:13:27.707Z,84.48
2024-03-17T08:14:27.736Z,83.86
2024-03-17T08:15:27.690Z,85.21
2024-03-17T08:16:27.709Z,85.72
2024-03-17T08:17:27.686Z,85.72
2024-03-17T08:18:27.691Z,85.17
2024-03-17T08:19:27.656Z,83.78
2024-03-17T08:20:27.660Z,82.71
2024-03-17T08:21:27.667Z,80.30
2024-03-17T08:22:27.631Z,78.86
2024-03-17T08:23:27.610Z,79.79
2024-03-17T08:24:27.616Z,80.00
2024-03-17T08:25:27.592Z,80.10
2024-03-17T08:26:27.588Z,80.41
2024-03-17T08:27:27.565Z,79.79
2024-03-17T08:28:27.551Z,79.90
2024-03-17T08:29:27.580Z,81.65
2024-03-17T08:30:27.955Z,80.10
2024-03-17T08:31:27.563Z,80.47
2024-03-17T08:32:27.534Z,81.23
2024-03-17T08:33:27.513Z,81.34
2024-03-17T08:34:27.496Z,81.85
2024-03-17T08:35:27.477Z,81.03
2024-03-17T08:36:27.579Z,80.51
2024-03-17T08:37:27.484Z,80.51
2024-03-17T08:38:27.455Z,80.00
2024-03-17T08:39:27.447Z,79.79
2024-03-17T08:40:27.428Z,79.55
2024-03-17T08:41:27.437Z,78.69
2024-03-17T08:42:27.416Z,78.38
2024-03-17T08:43:27.397Z,78.55
2024-03-17T08:44:27.385Z,78.44
2024-03-17T08:45:33.886Z,78.75
2024-03-17T08:46:27.394Z,76.70
2024-03-17T08:47:27.374Z,77.07
2024-03-17T08:48:27.340Z,77.89
2024-03-17T08:49:27.330Z,76.56
2024-03-17T08:50:27.354Z,77.07
2024-03-17T08:51:27.327Z,76.56
2024-03-17T08:52:27.309Z,76.59
2024-03-17T08:53:27.285Z,77.31
2024-03-17T08:54:27.305Z,78.44
2024-03-17T08:55:27.259Z,77.42
2024-03-17T08:56:27.293Z,77.51
2024-03-17T08:57:27.246Z,78.34
2024-03-17T08:58:27.232Z,78.28
2024-03-17T08:59:27.257Z,78.75
2024-03-17T09:00:27.220Z,77.72
2024-03-17T09:01:27.197Z,76.28
2024-03-17T09:02:27.197Z,74.40
2024-03-17T09:03:27.183Z,76.56
2024-03-17T09:04:27.198Z,77.48
2024-03-17T09:05:27.148Z,75.73
2024-03-17T09:06:27.168Z,75.01
2024-03-17T09:07:27.135Z,75.32
2024-03-17T09:08:27.140Z,75.32
2024-03-17T09:09:27.138Z,76.14
2024-03-17T09:10:27.111Z,75.80
2024-03-17T09:11:27.158Z,74.67
2024-03-17T09:12:27.109Z,75.25
2024-03-17T09:13:27.093Z,72.38
2024-03-17T09:14:27.081Z,73.19
2024-03-17T09:15:27.085Z,70.32
2024-03-17T09:16:27.109Z,71.55
2024-03-17T09:17:27.033Z,72.89
2024-03-17T09:18:27.039Z,72.99
2024-03-17T09:19:27.029Z,73.19
2024-03-17T09:20:27.006Z,74.29
2024-03-17T09:21:27.015Z,72.72
2024-03-17T09:22:27.029Z,71.38
2024-03-17T09:23:27.048Z,70.32
2024-03-17T09:24:26.999Z,71.76
2024-03-17T09:25:26.943Z,70.84
2024-03-17T09:26:26.934Z,71.35
2024-03-17T09:27:26.951Z,70.84
2024-03-17T09:28:26.943Z,70.94
2024-03-17T09:29:26.909Z,71.62
2024-03-17T09:30:26.905Z,68.57
2024-03-17T09:31:26.872Z,70.22
2024-03-17T09:32:26.883Z,69.81
2024-03-17T09:33:26.851Z,68.27
2024-03-17T09:34:26.864Z,70.84
2024-03-17T09:35:26.828Z,72.65
2024-03-17T09:36:26.840Z,70.80
2024-03-17T09:37:26.904Z,70.50
2024-03-17T09:38:26.857Z,68.85
2024-03-17T09:39:26.816Z,68.65
2024-03-17T09:40:26.798Z,69.67
2024-03-17T09:41:26.767Z,69.40
2024-03-17T09:42:26.791Z,69.29
2024-03-17T09:43:26.749Z,70.63
2024-03-17T09:44:26.761Z,70.22
2024-03-17T09:45:26.723Z,70.42
2024-03-17T09:46:26.744Z,70.01
2024-03-17T09:47:26.721Z,69.70
2024-03-17T09:48:26.722Z,69.19
2024-03-17T09:49:26.701Z,67.55
2024-03-17T09:50:26.677Z,67.93
2024-03-17T09:51:26.674Z,69.78
2024-03-17T09:52:26.670Z,69.57
2024-03-17T09:53:26.638Z,68.82
2024-03-17T09:54:26.639Z,68.62
2024-03-17T09:55:26.618Z,67.21
2024-03-17T09:56:26.643Z,67.44
2024-03-17T09:57:26.598Z,69.23
2024-03-17T09:58:26.583Z,69.23
2024-03-17T09:59:26.566Z,70.01
2024-03-17T10:00:26.585Z,71.25
2024-03-17T10:01:26.642Z,71.21
2024-03-17T10:02:26.554Z,70.29
2024-03-17T10:03:26.600Z,68.92
2024-03-17T10:04:26.592Z,67.52
2024-03-17T10:05:26.513Z,67.52
2024-03-17T10:06:26.514Z,68.57
2024-03-17T10:07:26.514Z,68.16
2024-03-17T10:08:26.486Z,69.40
2024-03-17T10:09:26.458Z,71.66
2024-03-17T10:10:26.502Z,68.96
2024-03-17T10:11:26.469Z,67.69
2024-03-17T10:12:26.470Z,67.69
2024-03-17T10:13:26.427Z,70.67
2024-03-17T10:14:26.447Z,68.38
2024-03-17T10:15:26.428Z,69.57
2024-03-17T10:16:26.459Z,66.91
2024-03-17T10:17:26.405Z,67.52
2024-03-17T10:18:26.396Z,66.84
2024-03-17T10:19:29.929Z,66.53
2024-03-17T10:20:26.352Z,67.22
2024-03-17T10:21:26.329Z,67.25
2024-03-17T10:22:26.354Z,68.14
2024-03-17T10:23:34.517Z,67.70
2024-03-17T10:24:26.422Z,67.70
2024-03-17T10:25:26.293Z,64.90
2024-03-17T10:26:26.285Z,64.32
2024-03-17T10:27:26.876Z,64.73
2024-03-17T10:28:26.266Z,66.27
2024-03-17T10:29:26.251Z,65.72
2024-03-17T10:30:26.237Z,64.80
2024-03-17T10:31:26.234Z,66.54
2024-03-17T10:32:26.262Z,65.83
2024-03-17T10:33:26.193Z,63.60
2024-03-17T10:34:27.682Z,65.96
2024-03-17T10:35:26.176Z,65.34
2024-03-17T10:36:26.187Z,65.65
2024-03-17T10:37:26.191Z,64.70
2024-03-17T10:38:26.161Z,64.29
2024-03-17T10:39:26.168Z,64.32
2024-03-17T10:40:26.154Z,65.27
2024-03-17T10:41:26.137Z,64.56
2024-03-17T10:42:26.145Z,64.89
2024-03-17T10:43:26.106Z,65.33
2024-03-17T10:44:26.092Z,65.64
2024-03-17T10:45:26.075Z,67.66
2024-03-17T10:46:27.086Z,67.14
2024-03-17T10:47:26.111Z,66.53
2024-03-17T10:48:26.058Z,66.84
2024-03-17T10:49:26.050Z,67.35
2024-03-17T10:50:26.031Z,66.74
2024-03-17T10:51:26.039Z,66.02
2024-03-17T10:52:28.280Z,66.33
2024-03-17T10:53:25.995Z,66.74
2024-03-17T10:54:26.032Z,68.35
2024-03-17T10:55:25.967Z,66.06
2024-03-17T10:56:25.966Z,64.80
2024-03-17T10:57:25.973Z,64.83
2024-03-17T10:58:25.965Z,65.86
2024-03-17T10:59:25.925Z,66.64
2024-03-17T11:00:25.928Z,63.98
2024-03-17T11:01:26.027Z,65.93
2024-03-17T11:02:25.900Z,65.93
2024-03-17T11:03:25.917Z,63.98
2024-03-17T11:04:25.874Z,64.94
2024-03-17T11:05:25.864Z,63.98
2024-03-17T11:06:25.855Z,63.78
2024-03-17T11:07:25.845Z,64.09
2024-03-17T11:08:32.178Z,63.47
2024-03-17T11:09:25.820Z,64.39
2024-03-17T11:10:25.866Z,63.98
2024-03-17T11:11:25.827Z,62.76
2024-03-17T11:12:26.273Z,63.70
2024-03-17T11:13:25.824Z,66.72
2024-03-17T11:14:25.775Z,65.25
2024-03-17T11:15:25.772Z,65.46
2024-03-17T11:16:25.749Z,62.36
2024-03-17T11:17:25.799Z,61.67
2024-03-17T11:18:25.749Z,61.70
2024-03-17T11:19:25.732Z,61.96
2024-03-17T11:20:25.718Z,63.12
2024-03-17T11:21:25.699Z,64.42
2024-03-17T11:22:25.714Z,64.53
2024-03-17T11:23:28.138Z,65.24
2024-03-17T11:24:25.666Z,65.83
2024-03-17T11:25:25.734Z,64.60
2024-03-17T11:26:25.670Z,65.52
2024-03-17T11:27:25.634Z,64.57
2024-03-17T11:28:25.634Z,64.87
2024-03-17T11:29:25.627Z,62.01
2024-03-17T11:30:25.655Z,62.21
2024-03-17T11:31:25.608Z,63.24
2024-03-17T11:32:25.613Z,62.01
2024-03-17T11:33:25.599Z,61.60
2024-03-17T11:34:25.568Z,62.08
2024-03-17T11:35:25.559Z,61.47
2024-03-17T11:36:25.561Z,60.88
2024-03-17T11:37:25.545Z,61.19
2024-03-17T11:38:25.513Z,62.80
2024-03-17T11:39:25.529Z,60.62
2024-03-17T11:40:25.508Z,60.72
2024-03-17T11:41:25.505Z,60.83
2024-03-17T11:42:25.472Z,61.00
2024-03-17T11:43:27.744Z,60.90
2024-03-17T11:44:25.465Z,61.31
2024-03-17T11:45:25.456Z,60.60
2024-03-17T11:46:25.467Z,61.10
2024-03-17T11:47:25.500Z,58.98
2024-03-17T11:48:25.408Z,59.70
2024-03-17T11:49:25.419Z,60.85
2024-03-17T11:50:25.390Z,60.14
2024-03-17T11:51:25.395Z,60.44
2024-03-17T11:52:25.404Z,62.16
2024-03-17T11:53:25.355Z,61.44
2024-03-17T11:54:25.346Z,59.42
2024-03-17T11:55:25.436Z,61.36
2024-03-17T11:56:25.318Z,60.44
2024-03-17T11:57:25.350Z,61.36
2024-03-17T11:58:25.319Z,60.65
2024-03-17T11:59:25.296Z,60.44
2024-03-17T12:00:25.317Z,60.17
2024-03-17T12:01:25.313Z,61.19
2024-03-17T12:02:25.267Z,60.99
2024-03-17T12:03:25.257Z,62.21
2024-03-17T12:04:25.240Z,63.62
2024-03-17T12:05:25.253Z,62.98
2024-03-17T12:06:25.261Z,61.24
2024-03-17T12:07:25.231Z,61.44
2024-03-17T12:08:25.188Z,59.60
2024-03-17T12:09:25.190Z,62.05
2024-03-17T12:10:25.192Z,62.27
2024-03-17T12:11:25.197Z,62.14
2024-03-17T12:12:25.143Z,60.41
2024-03-17T12:13:25.163Z,58.83
2024-03-17T12:14:25.157Z,60.67
2024-03-17T12:15:25.113Z,60.64
2024-03-17T12:16:25.121Z,58.73
2024-03-17T12:17:25.121Z,59.27
2024-03-17T12:18:25.080Z,60.69
2024-03-17T12:19:25.124Z,61.21
2024-03-17T12:20:25.111Z,61.18
2024-03-17T12:21:25.079Z,59.55
2024-03-17T12:22:25.080Z,60.26
2024-03-17T12:23:25.033Z,61.22
2024-03-17T12:24:25.022Z,58.03
2024-03-17T12:25:26.750Z,58.23
2024-03-17T12:26:25.011Z,58.98
2024-03-17T12:27:25.000Z,56.45
2024-03-17T12:28:25.013Z,58.29
2024-03-17T12:29:24.975Z,58.39
2024-03-17T12:30:24.961Z,58.11
2024-03-17T12:31:25.021Z,59.55
2024-03-17T12:32:24.930Z,59.95
2024-03-17T12:33:24.973Z,58.52
2024-03-17T12:34:24.923Z,59.64
2024-03-17T12:35:24.955Z,59.16
2024-03-17T12:36:24.929Z,59.98
2024-03-17T12:37:24.959Z,58.04
2024-03-17T12:38:24.874Z,59.27
2024-03-17T12:39:24.861Z,59.39
2024-03-17T12:40:24.872Z,61.92
2024-03-17T12:41:24.872Z,60.90
2024-03-17T12:42:24.839Z,61.18
2024-03-17T12:43:24.842Z,60.05
2024-03-17T12:44:24.890Z,60.57
2024-03-17T12:45:24.817Z,58.93
2024-03-17T12:46:24.839Z,59.55
2024-03-17T12:47:24.773Z,59.64
2024-03-17T12:48:24.794Z,59.75
2024-03-17T12:49:24.842Z,58.39
2024-03-17T12:50:24.743Z,58.91
2024-03-17T12:51:25.028Z,60.23
2024-03-17T12:52:24.840Z,58.91